Terminal Aerodrome Forecast
Issued by NWS Spokane, WA

Home | Current Version | Previous Version | Text Only | Print | Product List | Glossary On
Versions: 1 2 3 4 5 6 7 8 9 10 11 12 13 14 15 16 17 18 19 20 21 22 23 24 25
000
FTUS46 KOTX 131730
TAFGEG
TAF
KGEG 131730Z 1318/1418 VRB04KT P6SM BKN010 BKN025
     FM131900 01003KT P6SM SCT030
     FM132300 02004KT P6SM FEW030
     FM141000 02002KT 1SM BR BKN005
     FM141300 05003KT 1SM BR OVC003=

USA.gov is the U.S. government's official web portal to all federal, state and local government web resources and services.